sensor_id;sensor_type;location;lat;lon;timestamp;P1;durP1;ratioP1;P2;durP2;ratioP2
61393;SDS011;48555;50.952;-0.120;2023-08-01T00:01:23;9.55;;;3.88;;
61393;SDS011;48555;50.952;-0.120;2023-08-01T00:03:49;8.07;;;4.05;;
61393;SDS011;48555;50.952;-0.120;2023-08-01T00:06:14;11.00;;;3.92;;
61393;SDS011;48555;50.952;-0.120;2023-08-01T00:08:40;9.57;;;3.60;;
61393;SDS011;48555;50.952;-0.120;2023-08-01T00:11:05;6.95;;;3.72;;
61393;SDS011;48555;50.952;-0.120;2023-08-01T00:13:30;8.60;;;3.90;;
61393;SDS011;48555;50.952;-0.120;2023-08-01T00:15:56;8.05;;;3.80;;
61393;SDS011;48555;50.952;-0.120;2023-08-01T00:18:21;8.30;;;3.53;;
61393;SDS011;48555;50.952;-0.120;2023-08-01T00:20:46;6.90;;;3.35;;
61393;SDS011;48555;50.952;-0.120;2023-08-01T00:23:12;6.22;;;3.15;;
61393;SDS011;48555;50.952;-0.120;2023-08-01T00:25:37;6.95;;;3.72;;
61393;SDS011;48555;50.952;-0.120;2023-08-01T00:28:02;7.57;;;3.33;;
61393;SDS011;48555;50.952;-0.120;2023-08-01T00:30:28;9.75;;;3.40;;
61393;SDS011;48555;50.952;-0.120;2023-08-01T00:32:53;8.27;;;3.58;;
61393;SDS011;48555;50.952;-0.120;2023-08-01T00:35:19;8.68;;;3.20;;
61393;SDS011;48555;50.952;-0.120;2023-08-01T00:37:44;10.80;;;3.70;;
61393;SDS011;48555;50.952;-0.120;2023-08-01T00:40:09;7.45;;;3.17;;
61393;SDS011;48555;50.952;-0.120;2023-08-01T00:42:36;6.85;;;2.97;;
61393;SDS011;48555;50.952;-0.120;2023-08-01T00:45:03;7.35;;;3.40;;
61393;SDS011;48555;50.952;-0.120;2023-08-01T00:47:29;8.98;;;3.72;;
61393;SDS011;48555;50.952;-0.120;2023-08-01T00:49:54;11.13;;;3.95;;
61393;SDS011;48555;50.952;-0.120;2023-08-01T00:52:20;7.47;;;3.28;;
61393;SDS011;48555;50.952;-0.120;2023-08-01T00:54:45;10.25;;;3.17;;
61393;SDS011;48555;50.952;-0.120;2023-08-01T00:57:11;7.30;;;3.50;;
61393;SDS011;48555;50.952;-0.120;2023-08-01T00:59:36;6.38;;;3.15;;
61393;SDS011;48555;50.952;-0.120;2023-08-01T01:02:02;9.38;;;3.55;;
61393;SDS011;48555;50.952;-0.120;2023-08-01T01:04:27;6.63;;;3.53;;
61393;SDS011;48555;50.952;-0.120;2023-08-01T01:07:03;9.15;;;3.63;;
61393;SDS011;48555;50.952;-0.120;2023-08-01T01:09:30;7.22;;;3.50;;
61393;SDS011;48555;50.952;-0.120;2023-08-01T01:11:59;7.93;;;3.22;;
61393;SDS011;48555;50.952;-0.120;2023-08-01T01:14:26;8.02;;;3.50;;
61393;SDS011;48555;50.952;-0.120;2023-08-01T01:16:51;10.40;;;3.30;;
61393;SDS011;48555;50.952;-0.120;2023-08-01T01:19:17;9.27;;;3.70;;
61393;SDS011;48555;50.952;-0.120;2023-08-01T01:21:42;9.48;;;3.50;;
61393;SDS011;48555;50.952;-0.120;2023-08-01T01:24:09;11.88;;;4.50;;
61393;SDS011;48555;50.952;-0.120;2023-08-01T01:26:36;11.98;;;3.53;;
61393;SDS011;48555;50.952;-0.120;2023-08-01T01:29:03;9.38;;;3.80;;
61393;SDS011;48555;50.952;-0.120;2023-08-01T01:31:30;9.52;;;3.42;;
61393;SDS011;48555;50.952;-0.120;2023-08-01T01:33:57;10.90;;;3.65;;
61393;SDS011;48555;50.952;-0.120;2023-08-01T01:36:22;13.35;;;4.13;;
61393;SDS011;48555;50.952;-0.120;2023-08-01T01:38:48;10.40;;;3.63;;
61393;SDS011;48555;50.952;-0.120;2023-08-01T01:41:13;8.77;;;3.45;;
61393;SDS011;48555;50.952;-0.120;2023-08-01T01:43:38;8.55;;;3.33;;
61393;SDS011;48555;50.952;-0.120;2023-08-01T01:46:04;9.52;;;3.55;;
61393;SDS011;48555;50.952;-0.120;2023-08-01T01:48:29;9.60;;;3.67;;
61393;SDS011;48555;50.952;-0.120;2023-08-01T01:50:55;11.75;;;3.72;;
61393;SDS011;48555;50.952;-0.120;2023-08-01T01:53:20;9.20;;;3.47;;
61393;SDS011;48555;50.952;-0.120;2023-08-01T01:55:46;8.98;;;3.17;;
61393;SDS011;48555;50.952;-0.120;2023-08-01T01:58:11;11.02;;;3.42;;
61393;SDS011;48555;50.952;-0.120;2023-08-01T02:00:36;9.57;;;3.60;;
61393;SDS011;48555;50.952;-0.120;2023-08-01T02:03:02;10.38;;;3.38;;
61393;SDS011;48555;50.952;-0.120;2023-08-01T02:05:28;10.68;;;3.33;;
61393;SDS011;48555;50.952;-0.120;2023-08-01T02:07:54;9.57;;;3.40;;
61393;SDS011;48555;50.952;-0.120;2023-08-01T02:10:19;8.35;;;3.30;;
61393;SDS011;48555;50.952;-0.120;2023-08-01T02:12:44;9.25;;;3.65;;
61393;SDS011;48555;50.952;-0.120;2023-08-01T02:15:10;9.05;;;4.13;;
61393;SDS011;48555;50.952;-0.120;2023-08-01T02:17:35;9.38;;;3.22;;
61393;SDS011;48555;50.952;-0.120;2023-08-01T02:20:00;8.23;;;3.53;;
61393;SDS011;48555;50.952;-0.120;2023-08-01T02:22:26;14.13;;;4.05;;
61393;SDS011;48555;50.952;-0.120;2023-08-01T02:24:52;9.20;;;3.40;;
61393;SDS011;48555;50.952;-0.120;2023-08-01T02:27:17;10.90;;;3.42;;
61393;SDS011;48555;50.952;-0.120;2023-08-01T02:29:42;9.30;;;3.28;;
61393;SDS011;48555;50.952;-0.120;2023-08-01T02:32:09;9.60;;;3.78;;
61393;SDS011;48555;50.952;-0.120;2023-08-01T02:34:34;7.85;;;3.40;;
61393;SDS011;48555;50.952;-0.120;2023-08-01T02:37:00;10.63;;;3.25;;
61393;SDS011;48555;50.952;-0.120;2023-08-01T02:39:25;14.98;;;4.05;;
61393;SDS011;48555;50.952;-0.120;2023-08-01T02:41:50;11.20;;;3.13;;
61393;SDS011;48555;50.952;-0.120;2023-08-01T02:44:16;9.18;;;3.70;;
61393;SDS011;48555;50.952;-0.120;2023-08-01T02:46:41;7.97;;;3.42;;
61393;SDS011;48555;50.952;-0.120;2023-08-01T02:49:07;10.63;;;3.92;;
61393;SDS011;48555;50.952;-0.120;2023-08-01T02:51:32;7.70;;;3.33;;
61393;SDS011;48555;50.952;-0.120;2023-08-01T02:53:57;11.63;;;4.38;;
61393;SDS011;48555;50.952;-0.120;2023-08-01T02:56:22;9.05;;;3.65;;
61393;SDS011;48555;50.952;-0.120;2023-08-01T02:58:48;8.85;;;3.58;;
61393;SDS011;48555;50.952;-0.120;2023-08-01T03:01:13;10.38;;;3.20;;
61393;SDS011;48555;50.952;-0.120;2023-08-01T03:03:39;11.90;;;3.17;;
61393;SDS011;48555;50.952;-0.120;2023-08-01T03:06:04;10.07;;;3.50;;
61393;SDS011;48555;50.952;-0.120;2023-08-01T03:08:30;10.60;;;3.38;;
61393;SDS011;48555;50.952;-0.120;2023-08-01T03:10:55;14.05;;;3.20;;
61393;SDS011;48555;50.952;-0.120;2023-08-01T03:13:21;11.88;;;3.28;;
61393;SDS011;48555;50.952;-0.120;2023-08-01T03:15:47;13.48;;;3.25;;
61393;SDS011;48555;50.952;-0.120;2023-08-01T03:18:12;10.82;;;3.30;;
61393;SDS011;48555;50.952;-0.120;2023-08-01T03:20:37;12.63;;;3.47;;
61393;SDS011;48555;50.952;-0.120;2023-08-01T03:23:03;11.93;;;3.35;;
61393;SDS011;48555;50.952;-0.120;2023-08-01T03:25:29;9.10;;;3.58;;
61393;SDS011;48555;50.952;-0.120;2023-08-01T03:27:55;14.43;;;3.70;;
61393;SDS011;48555;50.952;-0.120;2023-08-01T03:30:21;10.98;;;3.67;;
61393;SDS011;48555;50.952;-0.120;2023-08-01T03:32:47;11.57;;;3.70;;
61393;SDS011;48555;50.952;-0.120;2023-08-01T03:35:12;9.80;;;3.60;;
61393;SDS011;48555;50.952;-0.120;2023-08-01T03:37:41;8.90;;;3.38;;
61393;SDS011;48555;50.952;-0.120;2023-08-01T03:40:06;9.82;;;3.45;;
61393;SDS011;48555;50.952;-0.120;2023-08-01T03:42:34;13.45;;;4.10;;
61393;SDS011;48555;50.952;-0.120;2023-08-01T03:44:59;10.10;;;4.10;;
61393;SDS011;48555;50.952;-0.120;2023-08-01T03:47:25;12.35;;;4.00;;
61393;SDS011;48555;50.952;-0.120;2023-08-01T03:49:50;9.73;;;3.08;;
61393;SDS011;48555;50.952;-0.120;2023-08-01T03:52:15;9.57;;;3.25;;
61393;SDS011;48555;50.952;-0.120;2023-08-01T03:54:41;10.48;;;3.35;;
61393;SDS011;48555;50.952;-0.120;2023-08-01T03:57:06;9.60;;;3.20;;
61393;SDS011;48555;50.952;-0.120;2023-08-01T03:59:31;9.18;;;3.15;;
61393;SDS011;48555;50.952;-0.120;2023-08-01T04:01:57;9.85;;;3.20;;
61393;SDS011;48555;50.952;-0.120;2023-08-01T04:04:22;11.05;;;3.20;;
61393;SDS011;48555;50.952;-0.120;2023-08-01T04:06:48;11.02;;;3.30;;
61393;SDS011;48555;50.952;-0.120;2023-08-01T04:09:13;8.00;;;3.30;;
61393;SDS011;48555;50.952;-0.120;2023-08-01T04:11:39;8.95;;;3.20;;
61393;SDS011;48555;50.952;-0.120;2023-08-01T04:14:04;14.30;;;3.65;;
61393;SDS011;48555;50.952;-0.120;2023-08-01T04:16:29;10.68;;;3.00;;
61393;SDS011;48555;50.952;-0.120;2023-08-01T04:18:55;8.40;;;3.28;;
61393;SDS011;48555;50.952;-0.120;2023-08-01T04:21:20;9.23;;;3.03;;
61393;SDS011;48555;50.952;-0.120;2023-08-01T04:23:45;12.90;;;3.40;;
61393;SDS011;48555;50.952;-0.120;2023-08-01T04:26:11;7.80;;;3.20;;
61393;SDS011;48555;50.952;-0.120;2023-08-01T04:28:36;10.63;;;3.20;;
61393;SDS011;48555;50.952;-0.120;2023-08-01T04:31:01;10.98;;;3.83;;
61393;SDS011;48555;50.952;-0.120;2023-08-01T04:33:27;10.40;;;3.30;;
61393;SDS011;48555;50.952;-0.120;2023-08-01T04:35:52;10.32;;;3.50;;
61393;SDS011;48555;50.952;-0.120;2023-08-01T04:38:18;9.95;;;3.55;;
61393;SDS011;48555;50.952;-0.120;2023-08-01T04:40:44;8.63;;;2.95;;
61393;SDS011;48555;50.952;-0.120;2023-08-01T04:43:09;8.10;;;3.20;;
61393;SDS011;48555;50.952;-0.120;2023-08-01T04:45:35;10.43;;;3.22;;
61393;SDS011;48555;50.952;-0.120;2023-08-01T04:48:01;10.18;;;3.45;;
61393;SDS011;48555;50.952;-0.120;2023-08-01T04:50:26;10.40;;;3.42;;
61393;SDS011;48555;50.952;-0.120;2023-08-01T04:52:52;10.00;;;3.20;;
61393;SDS011;48555;50.952;-0.120;2023-08-01T04:55:17;10.38;;;3.13;;
61393;SDS011;48555;50.952;-0.120;2023-08-01T04:57:42;10.10;;;3.35;;
61393;SDS011;48555;50.952;-0.120;2023-08-01T05:00:09;8.45;;;3.30;;
61393;SDS011;48555;50.952;-0.120;2023-08-01T05:02:34;8.93;;;2.88;;
61393;SDS011;48555;50.952;-0.120;2023-08-01T05:05:00;10.63;;;3.55;;
61393;SDS011;48555;50.952;-0.120;2023-08-01T05:07:25;7.20;;;2.53;;
61393;SDS011;48555;50.952;-0.120;2023-08-01T05:09:50;8.55;;;3.33;;
61393;SDS011;48555;50.952;-0.120;2023-08-01T05:12:16;8.95;;;2.95;;
61393;SDS011;48555;50.952;-0.120;2023-08-01T05:14:41;8.38;;;2.97;;
61393;SDS011;48555;50.952;-0.120;2023-08-01T05:17:07;9.63;;;3.00;;
61393;SDS011;48555;50.952;-0.120;2023-08-01T05:19:32;6.68;;;2.85;;
61393;SDS011;48555;50.952;-0.120;2023-08-01T05:21:57;8.98;;;2.95;;
61393;SDS011;48555;50.952;-0.120;2023-08-01T05:24:23;9.23;;;2.63;;
61393;SDS011;48555;50.952;-0.120;2023-08-01T05:26:48;7.65;;;2.60;;
61393;SDS011;48555;50.952;-0.120;2023-08-01T05:29:13;10.25;;;3.10;;
61393;SDS011;48555;50.952;-0.120;2023-08-01T05:31:39;10.02;;;3.00;;
61393;SDS011;48555;50.952;-0.120;2023-08-01T05:34:04;8.82;;;2.80;;
61393;SDS011;48555;50.952;-0.120;2023-08-01T05:36:29;8.43;;;2.70;;
61393;SDS011;48555;50.952;-0.120;2023-08-01T05:38:55;8.65;;;2.90;;
61393;SDS011;48555;50.952;-0.120;2023-08-01T05:41:20;8.32;;;2.80;;
61393;SDS011;48555;50.952;-0.120;2023-08-01T05:43:47;8.70;;;2.70;;
61393;SDS011;48555;50.952;-0.120;2023-08-01T05:46:14;8.80;;;2.85;;
61393;SDS011;48555;50.952;-0.120;2023-08-01T05:48:39;8.32;;;3.03;;
61393;SDS011;48555;50.952;-0.120;2023-08-01T05:51:04;11.25;;;2.83;;
61393;SDS011;48555;50.952;-0.120;2023-08-01T05:53:30;7.90;;;2.72;;
61393;SDS011;48555;50.952;-0.120;2023-08-01T05:55:55;9.60;;;3.10;;
61393;SDS011;48555;50.952;-0.120;2023-08-01T05:58:21;8.02;;;2.63;;
61393;SDS011;48555;50.952;-0.120;2023-08-01T06:00:46;8.82;;;2.53;;
61393;SDS011;48555;50.952;-0.120;2023-08-01T06:03:11;8.48;;;2.72;;
61393;SDS011;48555;50.952;-0.120;2023-08-01T06:05:37;8.52;;;2.80;;
61393;SDS011;48555;50.952;-0.120;2023-08-01T06:08:03;10.32;;;2.55;;
61393;SDS011;48555;50.952;-0.120;2023-08-01T06:10:28;7.22;;;2.50;;
61393;SDS011;48555;50.952;-0.120;2023-08-01T06:12:54;7.65;;;2.80;;
61393;SDS011;48555;50.952;-0.120;2023-08-01T06:15:19;10.35;;;2.70;;
61393;SDS011;48555;50.952;-0.120;2023-08-01T06:17:45;8.90;;;2.65;;
61393;SDS011;48555;50.952;-0.120;2023-08-01T06:20:11;8.18;;;2.65;;
61393;SDS011;48555;50.952;-0.120;2023-08-01T06:22:36;7.20;;;2.95;;
61393;SDS011;48555;50.952;-0.120;2023-08-01T06:25:02;8.63;;;2.72;;
61393;SDS011;48555;50.952;-0.120;2023-08-01T06:27:27;10.15;;;3.00;;
61393;SDS011;48555;50.952;-0.120;2023-08-01T06:29:53;7.32;;;2.60;;
61393;SDS011;48555;50.952;-0.120;2023-08-01T06:32:18;7.72;;;2.63;;
61393;SDS011;48555;50.952;-0.120;2023-08-01T06:34:43;9.30;;;2.72;;
61393;SDS011;48555;50.952;-0.120;2023-08-01T06:37:09;10.20;;;2.60;;
61393;SDS011;48555;50.952;-0.120;2023-08-01T06:39:35;8.48;;;2.38;;
61393;SDS011;48555;50.952;-0.120;2023-08-01T06:42:00;5.93;;;2.30;;
61393;SDS011;48555;50.952;-0.120;2023-08-01T06:44:26;5.30;;;2.38;;
61393;SDS011;48555;50.952;-0.120;2023-08-01T06:46:51;7.35;;;2.30;;
61393;SDS011;48555;50.952;-0.120;2023-08-01T06:49:16;8.40;;;2.38;;
61393;SDS011;48555;50.952;-0.120;2023-08-01T06:51:41;8.05;;;2.53;;
61393;SDS011;48555;50.952;-0.120;2023-08-01T06:54:07;9.55;;;2.42;;
61393;SDS011;48555;50.952;-0.120;2023-08-01T06:56:33;7.70;;;2.63;;
61393;SDS011;48555;50.952;-0.120;2023-08-01T06:58:58;8.00;;;2.28;;
61393;SDS011;48555;50.952;-0.120;2023-08-01T07:01:23;6.47;;;2.40;;
61393;SDS011;48555;50.952;-0.120;2023-08-01T07:03:49;8.40;;;2.55;;
61393;SDS011;48555;50.952;-0.120;2023-08-01T07:06:17;7.75;;;2.78;;
61393;SDS011;48555;50.952;-0.120;2023-08-01T07:08:42;6.28;;;2.22;;
61393;SDS011;48555;50.952;-0.120;2023-08-01T07:11:08;7.13;;;2.45;;
61393;SDS011;48555;50.952;-0.120;2023-08-01T07:13:33;6.43;;;2.28;;
61393;SDS011;48555;50.952;-0.120;2023-08-01T07:15:58;9.13;;;2.53;;
61393;SDS011;48555;50.952;-0.120;2023-08-01T07:18:24;6.57;;;2.17;;
61393;SDS011;48555;50.952;-0.120;2023-08-01T07:20:58;6.70;;;2.45;;
61393;SDS011;48555;50.952;-0.120;2023-08-01T07:23:24;6.63;;;2.05;;
61393;SDS011;48555;50.952;-0.120;2023-08-01T07:25:49;6.25;;;2.40;;
61393;SDS011;48555;50.952;-0.120;2023-08-01T07:28:15;8.15;;;2.35;;
61393;SDS011;48555;50.952;-0.120;2023-08-01T07:30:40;5.18;;;2.00;;
61393;SDS011;48555;50.952;-0.120;2023-08-01T07:33:05;7.22;;;2.58;;
61393;SDS011;48555;50.952;-0.120;2023-08-01T07:35:31;6.53;;;2.30;;
61393;SDS011;48555;50.952;-0.120;2023-08-01T07:37:56;5.43;;;1.95;;
61393;SDS011;48555;50.952;-0.120;2023-08-01T07:40:21;6.78;;;2.35;;
61393;SDS011;48555;50.952;-0.120;2023-08-01T07:42:47;8.57;;;2.10;;
61393;SDS011;48555;50.952;-0.120;2023-08-01T07:45:12;5.82;;;1.80;;
61393;SDS011;48555;50.952;-0.120;2023-08-01T07:47:37;6.07;;;1.92;;
61393;SDS011;48555;50.952;-0.120;2023-08-01T07:50:03;4.28;;;1.63;;
61393;SDS011;48555;50.952;-0.120;2023-08-01T07:52:28;5.10;;;1.45;;
61393;SDS011;48555;50.952;-0.120;2023-08-01T07:54:54;7.28;;;2.00;;
61393;SDS011;48555;50.952;-0.120;2023-08-01T07:57:22;5.82;;;1.92;;
61393;SDS011;48555;50.952;-0.120;2023-08-01T07:59:47;6.13;;;1.80;;
61393;SDS011;48555;50.952;-0.120;2023-08-01T08:02:12;5.55;;;2.03;;
61393;SDS011;48555;50.952;-0.120;2023-08-01T08:04:38;5.50;;;1.98;;
61393;SDS011;48555;50.952;-0.120;2023-08-01T08:07:03;4.50;;;1.60;;
61393;SDS011;48555;50.952;-0.120;2023-08-01T08:09:29;7.10;;;2.03;;
61393;SDS011;48555;50.952;-0.120;2023-08-01T08:11:54;5.45;;;2.00;;
61393;SDS011;48555;50.952;-0.120;2023-08-01T08:14:22;7.60;;;2.08;;
61393;SDS011;48555;50.952;-0.120;2023-08-01T08:16:48;4.65;;;1.92;;
61393;SDS011;48555;50.952;-0.120;2023-08-01T08:19:13;4.78;;;2.03;;
61393;SDS011;48555;50.952;-0.120;2023-08-01T08:21:39;7.03;;;2.15;;
61393;SDS011;48555;50.952;-0.120;2023-08-01T08:24:04;6.85;;;1.98;;
61393;SDS011;48555;50.952;-0.120;2023-08-01T08:26:29;10.13;;;2.20;;
61393;SDS011;48555;50.952;-0.120;2023-08-01T08:28:56;4.68;;;1.70;;
61393;SDS011;48555;50.952;-0.120;2023-08-01T08:31:22;5.20;;;1.50;;
61393;SDS011;48555;50.952;-0.120;2023-08-01T08:33:47;5.07;;;1.75;;
61393;SDS011;48555;50.952;-0.120;2023-08-01T08:36:13;4.55;;;1.70;;
61393;SDS011;48555;50.952;-0.120;2023-08-01T08:38:38;6.15;;;1.80;;
61393;SDS011;48555;50.952;-0.120;2023-08-01T08:41:10;4.65;;;1.65;;
61393;SDS011;48555;50.952;-0.120;2023-08-01T08:43:38;7.03;;;1.90;;
61393;SDS011;48555;50.952;-0.120;2023-08-01T08:46:04;6.28;;;1.65;;
61393;SDS011;48555;50.952;-0.120;2023-08-01T08:48:30;4.05;;;1.60;;
61393;SDS011;48555;50.952;-0.120;2023-08-01T08:50:57;5.15;;;1.90;;
61393;SDS011;48555;50.952;-0.120;2023-08-01T08:53:25;6.65;;;1.92;;
61393;SDS011;48555;50.952;-0.120;2023-08-01T08:55:50;4.88;;;1.90;;
61393;SDS011;48555;50.952;-0.120;2023-08-01T08:58:16;3.60;;;1.60;;
61393;SDS011;48555;50.952;-0.120;2023-08-01T09:00:42;4.80;;;1.58;;
61393;SDS011;48555;50.952;-0.120;2023-08-01T09:03:08;5.82;;;1.80;;
61393;SDS011;48555;50.952;-0.120;2023-08-01T09:05:40;5.80;;;1.98;;
61393;SDS011;48555;50.952;-0.120;2023-08-01T09:08:13;5.35;;;1.80;;
61393;SDS011;48555;50.952;-0.120;2023-08-01T09:10:42;5.13;;;2.00;;
61393;SDS011;48555;50.952;-0.120;2023-08-01T09:13:08;4.82;;;1.90;;
61393;SDS011;48555;50.952;-0.120;2023-08-01T09:15:34;4.90;;;1.60;;
61393;SDS011;48555;50.952;-0.120;2023-08-01T09:18:01;6.32;;;2.10;;
61393;SDS011;48555;50.952;-0.120;2023-08-01T09:20:39;5.85;;;2.17;;
61393;SDS011;48555;50.952;-0.120;2023-08-01T09:23:08;4.88;;;1.80;;
61393;SDS011;48555;50.952;-0.120;2023-08-01T09:25:35;4.65;;;1.95;;
61393;SDS011;48555;50.952;-0.120;2023-08-01T09:28:00;5.05;;;1.92;;
61393;SDS011;48555;50.952;-0.120;2023-08-01T09:30:25;5.25;;;1.80;;
61393;SDS011;48555;50.952;-0.120;2023-08-01T09:32:56;4.82;;;2.00;;
61393;SDS011;48555;50.952;-0.120;2023-08-01T09:35:21;4.88;;;1.65;;
61393;SDS011;48555;50.952;-0.120;2023-08-01T09:37:47;5.65;;;1.70;;
61393;SDS011;48555;50.952;-0.120;2023-08-01T09:40:13;5.50;;;2.00;;
61393;SDS011;48555;50.952;-0.120;2023-08-01T09:42:40;9.10;;;3.00;;
61393;SDS011;48555;50.952;-0.120;2023-08-01T09:45:13;7.00;;;2.45;;
61393;SDS011;48555;50.952;-0.120;2023-08-01T09:47:39;6.70;;;1.98;;
61393;SDS011;48555;50.952;-0.120;2023-08-01T09:50:06;4.82;;;2.05;;
61393;SDS011;48555;50.952;-0.120;2023-08-01T09:52:32;7.03;;;1.77;;
61393;SDS011;48555;50.952;-0.120;2023-08-01T09:54:57;7.38;;;2.40;;
61393;SDS011;48555;50.952;-0.120;2023-08-01T09:57:23;9.18;;;2.47;;
61393;SDS011;48555;50.952;-0.120;2023-08-01T09:59:55;7.43;;;4.25;;
61393;SDS011;48555;50.952;-0.120;2023-08-01T10:02:21;7.40;;;2.85;;
61393;SDS011;48555;50.952;-0.120;2023-08-01T10:04:49;9.25;;;3.75;;
61393;SDS011;48555;50.952;-0.120;2023-08-01T10:07:19;8.48;;;3.35;;
61393;SDS011;48555;50.952;-0.120;2023-08-01T10:09:48;15.38;;;4.10;;
61393;SDS011;48555;50.952;-0.120;2023-08-01T10:12:14;8.48;;;2.60;;
61393;SDS011;48555;50.952;-0.120;2023-08-01T10:14:45;8.80;;;3.35;;
61393;SDS011;48555;50.952;-0.120;2023-08-01T10:17:11;11.98;;;4.25;;
61393;SDS011;48555;50.952;-0.120;2023-08-01T10:19:37;7.18;;;2.45;;
61393;SDS011;48555;50.952;-0.120;2023-08-01T10:22:03;6.55;;;2.33;;
61393;SDS011;48555;50.952;-0.120;2023-08-01T10:24:31;6.32;;;2.28;;
61393;SDS011;48555;50.952;-0.120;2023-08-01T10:26:57;6.45;;;2.65;;
61393;SDS011;48555;50.952;-0.120;2023-08-01T10:29:34;5.75;;;2.17;;
61393;SDS011;48555;50.952;-0.120;2023-08-01T10:32:00;12.25;;;4.15;;
61393;SDS011;48555;50.952;-0.120;2023-08-01T10:34:26;8.05;;;2.47;;
61393;SDS011;48555;50.952;-0.120;2023-08-01T10:36:55;10.27;;;2.22;;
61393;SDS011;48555;50.952;-0.120;2023-08-01T10:39:21;6.70;;;1.93;;
61393;SDS011;48555;50.952;-0.120;2023-08-01T10:41:56;6.28;;;2.00;;
61393;SDS011;48555;50.952;-0.120;2023-08-01T10:44:22;7.70;;;2.33;;
61393;SDS011;48555;50.952;-0.120;2023-08-01T10:46:51;6.85;;;2.10;;
61393;SDS011;48555;50.952;-0.120;2023-08-01T10:49:43;6.28;;;1.85;;
61393;SDS011;48555;50.952;-0.120;2023-08-01T10:52:18;6.28;;;1.90;;
61393;SDS011;48555;50.952;-0.120;2023-08-01T10:54:45;6.10;;;2.10;;
61393;SDS011;48555;50.952;-0.120;2023-08-01T10:57:17;5.85;;;1.80;;
61393;SDS011;48555;50.952;-0.120;2023-08-01T10:59:43;7.00;;;2.05;;
61393;SDS011;48555;50.952;-0.120;2023-08-01T11:02:09;5.15;;;2.20;;
61393;SDS011;48555;50.952;-0.120;2023-08-01T11:04:34;6.32;;;2.05;;
61393;SDS011;48555;50.952;-0.120;2023-08-01T11:07:01;4.70;;;1.63;;
61393;SDS011;48555;50.952;-0.120;2023-08-01T11:09:27;6.30;;;2.22;;
61393;SDS011;48555;50.952;-0.120;2023-08-01T11:11:53;6.38;;;2.10;;
61393;SDS011;48555;50.952;-0.120;2023-08-01T11:14:25;6.25;;;1.83;;
61393;SDS011;48555;50.952;-0.120;2023-08-01T11:19:19;8.05;;;2.15;;
61393;SDS011;48555;50.952;-0.120;2023-08-01T11:21:46;8.65;;;2.03;;
61393;SDS011;48555;50.952;-0.120;2023-08-01T11:24:12;7.35;;;2.25;;
61393;SDS011;48555;50.952;-0.120;2023-08-01T11:26:41;6.60;;;2.10;;
61393;SDS011;48555;50.952;-0.120;2023-08-01T11:29:07;8.38;;;2.08;;
61393;SDS011;48555;50.952;-0.120;2023-08-01T11:31:32;7.28;;;2.47;;
61393;SDS011;48555;50.952;-0.120;2023-08-01T11:33:58;6.93;;;2.00;;
61393;SDS011;48555;50.952;-0.120;2023-08-01T11:36:27;8.18;;;2.30;;
61393;SDS011;48555;50.952;-0.120;2023-08-01T11:38:54;7.13;;;2.35;;
61393;SDS011;48555;50.952;-0.120;2023-08-01T11:41:22;11.38;;;3.90;;
61393;SDS011;48555;50.952;-0.120;2023-08-01T11:43:48;7.07;;;2.55;;
61393;SDS011;48555;50.952;-0.120;2023-08-01T11:46:13;7.47;;;1.88;;
61393;SDS011;48555;50.952;-0.120;2023-08-01T11:48:39;9.55;;;2.30;;
61393;SDS011;48555;50.952;-0.120;2023-08-01T11:51:10;6.75;;;2.40;;
61393;SDS011;48555;50.952;-0.120;2023-08-01T11:53:36;5.85;;;2.00;;
61393;SDS011;48555;50.952;-0.120;2023-08-01T11:56:03;4.82;;;1.52;;
61393;SDS011;48555;50.952;-0.120;2023-08-01T12:01:02;10.13;;;2.28;;
61393;SDS011;48555;50.952;-0.120;2023-08-01T12:03:29;8.02;;;2.00;;
61393;SDS011;48555;50.952;-0.120;2023-08-01T12:06:04;7.68;;;2.10;;
61393;SDS011;48555;50.952;-0.120;2023-08-01T12:08:32;6.43;;;1.88;;
61393;SDS011;48555;50.952;-0.120;2023-08-01T12:10:57;7.82;;;2.03;;
61393;SDS011;48555;50.952;-0.120;2023-08-01T12:13:23;5.13;;;1.98;;
61393;SDS011;48555;50.952;-0.120;2023-08-01T12:15:50;8.77;;;1.98;;
61393;SDS011;48555;50.952;-0.120;2023-08-01T12:18:23;5.95;;;1.60;;
61393;SDS011;48555;50.952;-0.120;2023-08-01T12:20:53;6.75;;;1.85;;
61393;SDS011;48555;50.952;-0.120;2023-08-01T12:23:18;5.57;;;1.65;;
61393;SDS011;48555;50.952;-0.120;2023-08-01T12:25:44;5.90;;;1.80;;
61393;SDS011;48555;50.952;-0.120;2023-08-01T12:28:12;4.97;;;1.80;;
61393;SDS011;48555;50.952;-0.120;2023-08-01T12:30:41;6.50;;;1.85;;
61393;SDS011;48555;50.952;-0.120;2023-08-01T12:33:07;7.43;;;2.05;;
61393;SDS011;48555;50.952;-0.120;2023-08-01T12:35:33;6.50;;;2.17;;
61393;SDS011;48555;50.952;-0.120;2023-08-01T12:37:58;7.80;;;2.28;;
61393;SDS011;48555;50.952;-0.120;2023-08-01T12:40:24;5.35;;;2.10;;
61393;SDS011;48555;50.952;-0.120;2023-08-01T12:42:49;7.40;;;2.08;;
61393;SDS011;48555;50.952;-0.120;2023-08-01T12:45:15;6.10;;;1.98;;
61393;SDS011;48555;50.952;-0.120;2023-08-01T12:47:40;5.82;;;1.80;;
61393;SDS011;48555;50.952;-0.120;2023-08-01T12:50:06;5.57;;;1.95;;
61393;SDS011;48555;50.952;-0.120;2023-08-01T12:52:31;7.95;;;2.50;;
61393;SDS011;48555;50.952;-0.120;2023-08-01T12:54:57;9.80;;;2.72;;
61393;SDS011;48555;50.952;-0.120;2023-08-01T12:57:22;10.02;;;2.70;;
61393;SDS011;48555;50.952;-0.120;2023-08-01T12:59:48;11.10;;;3.05;;
61393;SDS011;48555;50.952;-0.120;2023-08-01T13:02:14;7.60;;;2.85;;
61393;SDS011;48555;50.952;-0.120;2023-08-01T13:04:39;12.00;;;3.38;;
61393;SDS011;48555;50.952;-0.120;2023-08-01T13:07:05;8.65;;;3.33;;
61393;SDS011;48555;50.952;-0.120;2023-08-01T13:09:30;11.65;;;3.10;;
61393;SDS011;48555;50.952;-0.120;2023-08-01T13:11:56;8.85;;;3.05;;
61393;SDS011;48555;50.952;-0.120;2023-08-01T13:14:21;10.18;;;3.30;;
61393;SDS011;48555;50.952;-0.120;2023-08-01T13:16:47;11.95;;;3.53;;
61393;SDS011;48555;50.952;-0.120;2023-08-01T13:19:13;11.77;;;3.42;;
61393;SDS011;48555;50.952;-0.120;2023-08-01T13:21:38;10.35;;;3.15;;
61393;SDS011;48555;50.952;-0.120;2023-08-01T13:24:03;9.70;;;3.33;;
61393;SDS011;48555;50.952;-0.120;2023-08-01T13:26:33;11.27;;;3.50;;
61393;SDS011;48555;50.952;-0.120;2023-08-01T13:28:59;11.40;;;3.42;;
61393;SDS011;48555;50.952;-0.120;2023-08-01T13:31:25;9.02;;;3.20;;
61393;SDS011;48555;50.952;-0.120;2023-08-01T13:33:51;10.57;;;3.00;;
61393;SDS011;48555;50.952;-0.120;2023-08-01T13:36:17;11.65;;;3.70;;
61393;SDS011;48555;50.952;-0.120;2023-08-01T13:38:43;11.60;;;3.90;;
61393;SDS011;48555;50.952;-0.120;2023-08-01T13:41:09;10.57;;;3.50;;
61393;SDS011;48555;50.952;-0.120;2023-08-01T13:43:34;12.75;;;3.80;;
61393;SDS011;48555;50.952;-0.120;2023-08-01T13:45:59;12.15;;;3.40;;
61393;SDS011;48555;50.952;-0.120;2023-08-01T13:48:25;8.98;;;3.40;;
61393;SDS011;48555;50.952;-0.120;2023-08-01T13:50:50;10.63;;;2.97;;
61393;SDS011;48555;50.952;-0.120;2023-08-01T13:53:16;10.65;;;3.13;;
61393;SDS011;48555;50.952;-0.120;2023-08-01T13:55:42;11.60;;;3.22;;
61393;SDS011;48555;50.952;-0.120;2023-08-01T13:58:07;10.68;;;2.97;;
61393;SDS011;48555;50.952;-0.120;2023-08-01T14:00:32;12.82;;;3.55;;
61393;SDS011;48555;50.952;-0.120;2023-08-01T14:02:59;11.40;;;3.28;;
61393;SDS011;48555;50.952;-0.120;2023-08-01T14:05:25;12.02;;;3.00;;
61393;SDS011;48555;50.952;-0.120;2023-08-01T14:07:51;12.45;;;3.47;;
61393;SDS011;48555;50.952;-0.120;2023-08-01T14:10:17;11.40;;;3.15;;
61393;SDS011;48555;50.952;-0.120;2023-08-01T14:12:42;12.20;;;3.33;;
61393;SDS011;48555;50.952;-0.120;2023-08-01T14:15:08;12.10;;;3.40;;
61393;SDS011;48555;50.952;-0.120;2023-08-01T14:17:34;16.10;;;4.22;;
61393;SDS011;48555;50.952;-0.120;2023-08-01T14:19:59;13.43;;;4.03;;
61393;SDS011;48555;50.952;-0.120;2023-08-01T14:22:25;10.27;;;3.45;;
61393;SDS011;48555;50.952;-0.120;2023-08-01T14:24:50;11.98;;;3.50;;
61393;SDS011;48555;50.952;-0.120;2023-08-01T14:27:15;11.38;;;3.70;;
61393;SDS011;48555;50.952;-0.120;2023-08-01T14:29:41;11.82;;;3.58;;